sensor_id;sensor_type;location;lat;lon;timestamp;temperature;humidity
23591;DHT22;11973;52.098;7.582;2023-05-01T03:46:33;7.50;71.00
23591;DHT22;11973;52.098;7.582;2023-05-01T03:49:00;7.50;71.00
23591;DHT22;11973;52.098;7.582;2023-05-01T03:51:30;7.50;71.10
23591;DHT22;11973;52.098;7.582;2023-05-01T03:53:55;7.50;71.90
23591;DHT22;11973;52.098;7.582;2023-05-01T03:56:24;7.60;71.30
23591;DHT22;11973;52.098;7.582;2023-05-01T03:58:51;7.50;72.10
23591;DHT22;11973;52.098;7.582;2023-05-01T04:01:17;7.50;71.40
23591;DHT22;11973;52.098;7.582;2023-05-01T04:03:45;7.60;71.50
23591;DHT22;11973;52.098;7.582;2023-05-01T04:06:12;7.40;71.50
23591;DHT22;11973;52.098;7.582;2023-05-01T04:08:38;7.50;72.30
23591;DHT22;11973;52.098;7.582;2023-05-01T04:11:03;7.50;71.50
23591;DHT22;11973;52.098;7.582;2023-05-01T04:13:29;7.50;71.60
23591;DHT22;11973;52.098;7.582;2023-05-01T04:15:55;7.60;71.80
23591;DHT22;11973;52.098;7.582;2023-05-01T04:18:24;7.50;71.80
23591;DHT22;11973;52.098;7.582;2023-05-01T04:20:52;7.60;72.00
23591;DHT22;11973;52.098;7.582;2023-05-01T04:23:19;7.70;72.20
23591;DHT22;11973;52.098;7.582;2023-05-01T04:25:45;7.50;72.80
23591;DHT22;11973;52.098;7.582;2023-05-01T04:28:15;7.50;72.20
23591;DHT22;11973;52.098;7.582;2023-05-01T04:30:43;7.60;72.30
23591;DHT22;11973;52.098;7.582;2023-05-01T04:33:09;7.60;73.10
23591;DHT22;11973;52.098;7.582;2023-05-01T04:35:39;7.60;72.40
23591;DHT22;11973;52.098;7.582;2023-05-01T04:38:05;7.60;72.50
23591;DHT22;11973;52.098;7.582;2023-05-01T04:40:31;7.70;72.60
23591;DHT22;11973;52.098;7.582;2023-05-01T04:42:58;7.70;72.60
23591;DHT22;11973;52.098;7.582;2023-05-01T04:45:25;7.80;73.50
23591;DHT22;11973;52.098;7.582;2023-05-01T04:47:50;7.80;72.70
23591;DHT22;11973;52.098;7.582;2023-05-01T04:50:16;8.00;73.00
23591;DHT22;11973;52.098;7.582;2023-05-01T04:52:42;8.10;73.10
23591;DHT22;11973;52.098;7.582;2023-05-01T04:55:09;7.90;72.90
23591;DHT22;11973;52.098;7.582;2023-05-01T04:57:40;8.00;73.00
23591;DHT22;11973;52.098;7.582;2023-05-01T05:00:07;8.00;73.00
23591;DHT22;11973;52.098;7.582;2023-05-01T05:02:37;8.10;73.20
23591;DHT22;11973;52.098;7.582;2023-05-01T05:05:03;8.10;73.10
23591;DHT22;11973;52.098;7.582;2023-05-01T05:07:30;8.20;73.10
23591;DHT22;11973;52.098;7.582;2023-05-01T05:10:18;8.20;73.20
23591;DHT22;11973;52.098;7.582;2023-05-01T05:12:53;8.30;73.20
23591;DHT22;11973;52.098;7.582;2023-05-01T05:15:19;8.40;74.10
23591;DHT22;11973;52.098;7.582;2023-05-01T05:17:46;8.50;74.20
23591;DHT22;11973;52.098;7.582;2023-05-01T05:20:12;8.60;73.50
23591;DHT22;11973;52.098;7.582;2023-05-01T05:22:38;8.60;73.40
23591;DHT22;11973;52.098;7.582;2023-05-01T05:25:20;8.70;73.40
23591;DHT22;11973;52.098;7.582;2023-05-01T05:27:46;8.80;73.40
23591;DHT22;11973;52.098;7.582;2023-05-01T05:30:12;8.90;73.40
23591;DHT22;11973;52.098;7.582;2023-05-01T05:32:38;8.90;73.30
23591;DHT22;11973;52.098;7.582;2023-05-01T05:35:04;9.00;73.30
23591;DHT22;11973;52.098;7.582;2023-05-01T05:37:31;9.10;73.40
23591;DHT22;11973;52.098;7.582;2023-05-01T05:39:57;9.20;73.50
23591;DHT22;11973;52.098;7.582;2023-05-01T05:42:23;9.30;73.60
23591;DHT22;11973;52.098;7.582;2023-05-01T05:44:49;9.40;73.60
23591;DHT22;11973;52.098;7.582;2023-05-01T05:47:15;9.70;73.70
23591;DHT22;11973;52.098;7.582;2023-05-01T05:49:41;9.80;73.60
23591;DHT22;11973;52.098;7.582;2023-05-01T05:52:06;9.80;73.40
23591;DHT22;11973;52.098;7.582;2023-05-01T05:54:32;9.90;74.00
23591;DHT22;11973;52.098;7.582;2023-05-01T05:56:58;10.00;71.90
23591;DHT22;11973;52.098;7.582;2023-05-01T05:59:24;10.10;71.80
23591;DHT22;11973;52.098;7.582;2023-05-01T06:01:50;10.20;71.70
23591;DHT22;11973;52.098;7.582;2023-05-01T06:04:16;10.30;71.60
23591;DHT22;11973;52.098;7.582;2023-05-01T06:06:43;10.40;71.70
23591;DHT22;11973;52.098;7.582;2023-05-01T06:09:08;10.40;71.50
23591;DHT22;11973;52.098;7.582;2023-05-01T06:11:34;10.50;71.40
23591;DHT22;11973;52.098;7.582;2023-05-01T06:14:00;10.60;71.40
23591;DHT22;11973;52.098;7.582;2023-05-01T06:16:27;10.70;71.30
23591;DHT22;11973;52.098;7.582;2023-05-01T06:18:53;10.70;71.10
23591;DHT22;11973;52.098;7.582;2023-05-01T06:21:19;10.80;71.10
23591;DHT22;11973;52.098;7.582;2023-05-01T06:23:44;10.90;71.90
23591;DHT22;11973;52.098;7.582;2023-05-01T06:26:27;11.10;71.10
23591;DHT22;11973;52.098;7.582;2023-05-01T06:28:53;11.10;71.00
23591;DHT22;11973;52.098;7.582;2023-05-01T06:31:19;11.20;71.00
23591;DHT22;11973;52.098;7.582;2023-05-01T06:33:49;11.30;71.00
23591;DHT22;11973;52.098;7.582;2023-05-01T06:36:23;11.40;71.60
23591;DHT22;11973;52.098;7.582;2023-05-01T06:38:49;11.50;70.80
23591;DHT22;11973;52.098;7.582;2023-05-01T06:41:15;11.50;70.60
23591;DHT22;11973;52.098;7.582;2023-05-01T06:43:41;11.60;70.70
23591;DHT22;11973;52.098;7.582;2023-05-01T06:46:07;11.70;70.70
23591;DHT22;11973;52.098;7.582;2023-05-01T06:48:33;11.80;70.70
23591;DHT22;11973;52.098;7.582;2023-05-01T06:50:59;11.90;70.70
23591;DHT22;11973;52.098;7.582;2023-05-01T06:53:25;12.10;70.60
23591;DHT22;11973;52.098;7.582;2023-05-01T06:55:51;12.10;70.50
23591;DHT22;11973;52.098;7.582;2023-05-01T06:58:16;12.30;70.40
23591;DHT22;11973;52.098;7.582;2023-05-01T07:00:42;12.30;70.40
23591;DHT22;11973;52.098;7.582;2023-05-01T07:03:08;12.40;70.40
23591;DHT22;11973;52.098;7.582;2023-05-01T07:05:33;12.50;70.30
23591;DHT22;11973;52.098;7.582;2023-05-01T07:07:59;12.60;70.20
23591;DHT22;11973;52.098;7.582;2023-05-01T07:10:25;12.70;70.20
23591;DHT22;11973;52.098;7.582;2023-05-01T07:12:52;12.80;70.90
23591;DHT22;11973;52.098;7.582;2023-05-01T07:15:17;12.90;70.80
23591;DHT22;11973;52.098;7.582;2023-05-01T07:17:43;13.00;70.00
23591;DHT22;11973;52.098;7.582;2023-05-01T07:20:10;13.10;70.00
23591;DHT22;11973;52.098;7.582;2023-05-01T07:22:37;13.20;70.70
23591;DHT22;11973;52.098;7.582;2023-05-01T07:25:02;13.20;69.80
23591;DHT22;11973;52.098;7.582;2023-05-01T07:27:28;13.30;69.80
23591;DHT22;11973;52.098;7.582;2023-05-01T07:29:55;13.40;69.70
23591;DHT22;11973;52.098;7.582;2023-05-01T07:32:22;13.50;69.80
23591;DHT22;11973;52.098;7.582;2023-05-01T07:34:47;13.60;69.70
23591;DHT22;11973;52.098;7.582;2023-05-01T07:37:13;13.70;69.70
23591;DHT22;11973;52.098;7.582;2023-05-01T07:39:44;13.80;69.60
23591;DHT22;11973;52.098;7.582;2023-05-01T07:42:09;13.90;69.50
23591;DHT22;11973;52.098;7.582;2023-05-01T07:44:35;14.00;69.50
23591;DHT22;11973;52.098;7.582;2023-05-01T07:47:04;14.10;69.40
23591;DHT22;11973;52.098;7.582;2023-05-01T07:49:37;14.10;69.30
23591;DHT22;11973;52.098;7.582;2023-05-01T07:52:04;14.20;69.20
23591;DHT22;11973;52.098;7.582;2023-05-01T07:54:32;14.30;69.40
23591;DHT22;11973;52.098;7.582;2023-05-01T07:56:58;14.40;69.30
23591;DHT22;11973;52.098;7.582;2023-05-01T07:59:23;14.50;69.20
23591;DHT22;11973;52.098;7.582;2023-05-01T08:01:49;14.60;69.10
23591;DHT22;11973;52.098;7.582;2023-05-01T08:04:15;14.70;69.00
23591;DHT22;11973;52.098;7.582;2023-05-01T08:06:43;14.80;68.90
23591;DHT22;11973;52.098;7.582;2023-05-01T08:09:11;14.90;68.80
23591;DHT22;11973;52.098;7.582;2023-05-01T08:11:36;15.00;68.70
23591;DHT22;11973;52.098;7.582;2023-05-01T08:14:02;15.10;68.70
23591;DHT22;11973;52.098;7.582;2023-05-01T08:16:28;15.20;68.60
23591;DHT22;11973;52.098;7.582;2023-05-01T08:18:55;15.20;68.40
23591;DHT22;11973;52.098;7.582;2023-05-01T08:21:20;15.30;68.30
23591;DHT22;11973;52.098;7.582;2023-05-01T08:23:46;15.40;68.20
23591;DHT22;11973;52.098;7.582;2023-05-01T08:26:12;15.50;68.10
23591;DHT22;11973;52.098;7.582;2023-05-01T08:28:38;15.60;68.10
23591;DHT22;11973;52.098;7.582;2023-05-01T08:31:04;15.70;67.90
23591;DHT22;11973;52.098;7.582;2023-05-01T08:33:30;15.90;68.10
23591;DHT22;11973;52.098;7.582;2023-05-01T08:35:55;16.00;68.00
23591;DHT22;11973;52.098;7.582;2023-05-01T08:38:21;16.10;67.80
23591;DHT22;11973;52.098;7.582;2023-05-01T08:40:51;16.20;67.60
23591;DHT22;11973;52.098;7.582;2023-05-01T08:43:21;16.30;67.30
23591;DHT22;11973;52.098;7.582;2023-05-01T08:45:50;16.40;67.30
23591;DHT22;11973;52.098;7.582;2023-05-01T08:48:19;16.50;67.20
23591;DHT22;11973;52.098;7.582;2023-05-01T08:50:46;16.50;66.90
23591;DHT22;11973;52.098;7.582;2023-05-01T08:53:15;16.60;66.60
23591;DHT22;11973;52.098;7.582;2023-05-01T08:55:43;16.50;66.40
23591;DHT22;11973;52.098;7.582;2023-05-01T08:58:13;16.60;66.50
23591;DHT22;11973;52.098;7.582;2023-05-01T09:00:41;16.70;66.50
23591;DHT22;11973;52.098;7.582;2023-05-01T09:03:10;16.70;66.20
23591;DHT22;11973;52.098;7.582;2023-05-01T09:05:36;16.80;66.20
23591;DHT22;11973;52.098;7.582;2023-05-01T09:08:02;16.80;66.00
23591;DHT22;11973;52.098;7.582;2023-05-01T09:10:29;16.90;66.00
23591;DHT22;11973;52.098;7.582;2023-05-01T09:12:56;16.90;65.80
23591;DHT22;11973;52.098;7.582;2023-05-01T09:15:26;17.00;65.60
23591;DHT22;11973;52.098;7.582;2023-05-01T09:17:53;17.00;65.40
23591;DHT22;11973;52.098;7.582;2023-05-01T09:20:22;17.00;65.20
23591;DHT22;11973;52.098;7.582;2023-05-01T09:22:48;17.00;65.10
23591;DHT22;11973;52.098;7.582;2023-05-01T09:25:14;17.00;65.10
23591;DHT22;11973;52.098;7.582;2023-05-01T09:27:39;17.10;65.20
23591;DHT22;11973;52.098;7.582;2023-05-01T09:30:06;17.20;65.10
23591;DHT22;11973;52.098;7.582;2023-05-01T09:32:33;17.20;64.90
23591;DHT22;11973;52.098;7.582;2023-05-01T09:35:13;17.30;64.90
23591;DHT22;11973;52.098;7.582;2023-05-01T09:37:39;17.40;64.80
23591;DHT22;11973;52.098;7.582;2023-05-01T09:40:11;17.40;64.80
23591;DHT22;11973;52.098;7.582;2023-05-01T09:42:38;17.40;64.50
23591;DHT22;11973;52.098;7.582;2023-05-01T09:45:14;17.50;64.40
23591;DHT22;11973;52.098;7.582;2023-05-01T09:47:41;17.50;64.20
23591;DHT22;11973;52.098;7.582;2023-05-01T09:50:09;17.50;64.10
23591;DHT22;11973;52.098;7.582;2023-05-01T09:52:35;17.50;63.80
23591;DHT22;11973;52.098;7.582;2023-05-01T09:55:31;17.50;63.90
23591;DHT22;11973;52.098;7.582;2023-05-01T09:57:56;17.50;63.80
23591;DHT22;11973;52.098;7.582;2023-05-01T10:00:23;17.60;63.80
23591;DHT22;11973;52.098;7.582;2023-05-01T10:02:50;17.60;63.50
23591;DHT22;11973;52.098;7.582;2023-05-01T10:05:16;17.60;63.20
23591;DHT22;11973;52.098;7.582;2023-05-01T10:07:57;17.60;63.10
23591;DHT22;11973;52.098;7.582;2023-05-01T10:10:23;17.60;62.70
23591;DHT22;11973;52.098;7.582;2023-05-01T10:12:49;17.60;62.70
23591;DHT22;11973;52.098;7.582;2023-05-01T10:15:17;17.50;62.40
23591;DHT22;11973;52.098;7.582;2023-05-01T10:17:43;17.50;62.70
23591;DHT22;11973;52.098;7.582;2023-05-01T10:20:10;17.50;63.30
23591;DHT22;11973;52.098;7.582;2023-05-01T10:22:38;17.50;62.60
23591;DHT22;11973;52.098;7.582;2023-05-01T10:25:07;17.50;62.30
23591;DHT22;11973;52.098;7.582;2023-05-01T10:27:34;17.50;62.10
23591;DHT22;11973;52.098;7.582;2023-05-01T10:30:03;17.50;62.10
23591;DHT22;11973;52.098;7.582;2023-05-01T10:32:33;17.50;61.90
23591;DHT22;11973;52.098;7.582;2023-05-01T10:35:30;17.50;62.60
23591;DHT22;11973;52.098;7.582;2023-05-01T10:38:00;17.50;61.60
23591;DHT22;11973;52.098;7.582;2023-05-01T10:43:23;17.60;61.80
23591;DHT22;11973;52.098;7.582;2023-05-01T10:45:51;17.60;61.70
23591;DHT22;11973;52.098;7.582;2023-05-01T10:51:21;17.70;61.60
23591;DHT22;11973;52.098;7.582;2023-05-01T10:54:20;17.80;61.70
23591;DHT22;11973;52.098;7.582;2023-05-01T10:59:01;18.00;61.40
23591;DHT22;11973;52.098;7.582;2023-05-01T11:01:35;18.00;61.30
23591;DHT22;11973;52.098;7.582;2023-05-01T11:04:04;18.10;61.30
23591;DHT22;11973;52.098;7.582;2023-05-01T11:06:33;18.20;61.10
23591;DHT22;11973;52.098;7.582;2023-05-01T11:09:00;18.20;60.70
23591;DHT22;11973;52.098;7.582;2023-05-01T11:14:03;18.30;60.20
23591;DHT22;11973;52.098;7.582;2023-05-01T11:19:04;18.50;60.40
23591;DHT22;11973;52.098;7.582;2023-05-01T11:21:32;18.60;60.40
23591;DHT22;11973;52.098;7.582;2023-05-01T11:24:02;18.70;60.20
23591;DHT22;11973;52.098;7.582;2023-05-01T11:26:31;18.70;59.90
23591;DHT22;11973;52.098;7.582;2023-05-01T11:29:00;18.70;59.80
23591;DHT22;11973;52.098;7.582;2023-05-01T11:31:26;18.80;59.80
23591;DHT22;11973;52.098;7.582;2023-05-01T11:33:57;18.80;59.70
23591;DHT22;11973;52.098;7.582;2023-05-01T11:36:23;18.90;59.50
23591;DHT22;11973;52.098;7.582;2023-05-01T11:38:55;18.90;59.40
23591;DHT22;11973;52.098;7.582;2023-05-01T11:41:22;18.90;59.30
23591;DHT22;11973;52.098;7.582;2023-05-01T11:43:53;19.00;59.30
23591;DHT22;11973;52.098;7.582;2023-05-01T11:46:30;19.10;59.30
23591;DHT22;11973;52.098;7.582;2023-05-01T11:48:58;19.10;59.20
23591;DHT22;11973;52.098;7.582;2023-05-01T11:51:24;19.20;59.20
23591;DHT22;11973;52.098;7.582;2023-05-01T11:54:01;19.30;59.30
23591;DHT22;11973;52.098;7.582;2023-05-01T11:56:28;19.40;59.20
23591;DHT22;11973;52.098;7.582;2023-05-01T11:58:56;19.50;59.10
23591;DHT22;11973;52.098;7.582;2023-05-01T12:01:43;19.60;59.00
23591;DHT22;11973;52.098;7.582;2023-05-01T12:04:12;19.80;58.90
23591;DHT22;11973;52.098;7.582;2023-05-01T12:06:42;19.90;58.80
23591;DHT22;11973;52.098;7.582;2023-05-01T12:09:23;20.10;58.70
23591;DHT22;11973;52.098;7.582;2023-05-01T12:11:51;20.30;58.70
23591;DHT22;11973;52.098;7.582;2023-05-01T12:14:18;20.50;58.70
23591;DHT22;11973;52.098;7.582;2023-05-01T12:16:46;20.70;58.50
23591;DHT22;11973;52.098;7.582;2023-05-01T12:19:13;20.90;58.30
23591;DHT22;11973;52.098;7.582;2023-05-01T12:21:40;21.00;58.00
23591;DHT22;11973;52.098;7.582;2023-05-01T12:24:12;21.20;57.90
23591;DHT22;11973;52.098;7.582;2023-05-01T12:26:45;21.30;57.60
23591;DHT22;11973;52.098;7.582;2023-05-01T12:29:11;21.40;57.50
23591;DHT22;11973;52.098;7.582;2023-05-01T12:31:46;21.50;57.30
23591;DHT22;11973;52.098;7.582;2023-05-01T12:34:12;21.60;57.00
23591;DHT22;11973;52.098;7.582;2023-05-01T12:36:39;21.70;57.00
23591;DHT22;11973;52.098;7.582;2023-05-01T12:39:09;21.80;57.00
23591;DHT22;11973;52.098;7.582;2023-05-01T12:44:26;22.00;56.40
23591;DHT22;11973;52.098;7.582;2023-05-01T12:47:02;22.10;56.20
23591;DHT22;11973;52.098;7.582;2023-05-01T12:49:29;22.20;56.30
23591;DHT22;11973;52.098;7.582;2023-05-01T12:51:57;22.40;56.30
23591;DHT22;11973;52.098;7.582;2023-05-01T12:54:28;22.60;55.90
23591;DHT22;11973;52.098;7.582;2023-05-01T12:57:05;22.60;55.50
23591;DHT22;11973;52.098;7.582;2023-05-01T12:59:33;22.70;55.50
23591;DHT22;11973;52.098;7.582;2023-05-01T13:02:01;22.70;55.10
23591;DHT22;11973;52.098;7.582;2023-05-01T13:04:28;22.70;55.50
23591;DHT22;11973;52.098;7.582;2023-05-01T13:06:55;22.80;54.90
23591;DHT22;11973;52.098;7.582;2023-05-01T13:09:26;22.80;54.60
23591;DHT22;11973;52.098;7.582;2023-05-01T13:12:12;22.80;54.30
23591;DHT22;11973;52.098;7.582;2023-05-01T13:14:39;22.70;53.90
23591;DHT22;11973;52.098;7.582;2023-05-01T13:17:06;22.60;53.80
23591;DHT22;11973;52.098;7.582;2023-05-01T13:19:32;22.50;53.50
23591;DHT22;11973;52.098;7.582;2023-05-01T13:21:58;22.40;54.00
23591;DHT22;11973;52.098;7.582;2023-05-01T13:24:45;22.40;53.30
23591;DHT22;11973;52.098;7.582;2023-05-01T13:27:11;22.40;53.20
23591;DHT22;11973;52.098;7.582;2023-05-01T13:29:38;22.50;53.40
23591;DHT22;11973;52.098;7.582;2023-05-01T13:32:04;22.60;53.90
23591;DHT22;11973;52.098;7.582;2023-05-01T13:34:33;22.70;53.20
23591;DHT22;11973;52.098;7.582;2023-05-01T13:37:00;22.70;53.10
23591;DHT22;11973;52.098;7.582;2023-05-01T13:39:27;22.70;52.80
23591;DHT22;11973;52.098;7.582;2023-05-01T13:41:53;22.70;52.70
23591;DHT22;11973;52.098;7.582;2023-05-01T13:44:20;22.70;52.60
23591;DHT22;11973;52.098;7.582;2023-05-01T13:46:46;22.70;52.50
23591;DHT22;11973;52.098;7.582;2023-05-01T13:49:13;22.50;52.20
23591;DHT22;11973;52.098;7.582;2023-05-01T13:51:40;22.50;52.10
23591;DHT22;11973;52.098;7.582;2023-05-01T13:54:08;22.30;51.90
23591;DHT22;11973;52.098;7.582;2023-05-01T13:56:35;22.20;51.80
23591;DHT22;11973;52.098;7.582;2023-05-01T13:59:02;22.10;52.50
23591;DHT22;11973;52.098;7.582;2023-05-01T14:01:30;22.00;51.90
23591;DHT22;11973;52.098;7.582;2023-05-01T14:03:56;22.00;51.90
23591;DHT22;11973;52.098;7.582;2023-05-01T14:06:22;22.00;51.80
23591;DHT22;11973;52.098;7.582;2023-05-01T14:08:56;21.90;51.70
23591;DHT22;11973;52.098;7.582;2023-05-01T14:11:22;21.80;51.60
23591;DHT22;11973;52.098;7.582;2023-05-01T14:13:49;21.80;51.70
23591;DHT22;11973;52.098;7.582;2023-05-01T14:16:26;21.80;51.80
23591;DHT22;11973;52.098;7.582;2023-05-01T14:18:57;21.80;51.70
23591;DHT22;11973;52.098;7.582;2023-05-01T14:21:25;21.80;51.60
23591;DHT22;11973;52.098;7.582;2023-05-01T14:23:55;21.70;51.60
23591;DHT22;11973;52.098;7.582;2023-05-01T14:26:21;21.70;51.60
23591;DHT22;11973;52.098;7.582;2023-05-01T14:28:50;21.70;51.60
23591;DHT22;11973;52.098;7.582;2023-05-01T14:31:25;21.80;52.20
23591;DHT22;11973;52.098;7.582;2023-05-01T14:34:03;22.00;52.40
23591;DHT22;11973;52.098;7.582;2023-05-01T14:36:29;22.40;52.70
23591;DHT22;11973;52.098;7.582;2023-05-01T14:38:59;22.60;52.40
23591;DHT22;11973;52.098;7.582;2023-05-01T14:41:26;22.70;52.00
23591;DHT22;11973;52.098;7.582;2023-05-01T14:43:52;22.80;51.70
23591;DHT22;11973;52.098;7.582;2023-05-01T14:46:30;22.70;51.60
23591;DHT22;11973;52.098;7.582;2023-05-01T14:48:56;22.60;51.30
23591;DHT22;11973;52.098;7.582;2023-05-01T14:51:22;22.60;51.40
23591;DHT22;11973;52.098;7.582;2023-05-01T14:53:48;22.40;51.20
23591;DHT22;11973;52.098;7.582;2023-05-01T14:56:14;22.20;51.20
23591;DHT22;11973;52.098;7.582;2023-05-01T14:58:40;22.10;51.20
23591;DHT22;11973;52.098;7.582;2023-05-01T15:01:06;21.90;51.10
23591;DHT22;11973;52.098;7.582;2023-05-01T15:03:33;21.80;51.20
23591;DHT22;11973;52.098;7.582;2023-05-01T15:06:05;21.70;51.20
23591;DHT22;11973;52.098;7.582;2023-05-01T15:08:31;21.60;51.90
23591;DHT22;11973;52.098;7.582;2023-05-01T15:10:58;21.50;51.30
23591;DHT22;11973;52.098;7.582;2023-05-01T15:13:23;21.50;51.50
23591;DHT22;11973;52.098;7.582;2023-05-01T15:15:49;21.50;51.50
23591;DHT22;11973;52.098;7.582;2023-05-01T15:18:15;21.50;51.60
23591;DHT22;11973;52.098;7.582;2023-05-01T15:20:41;21.50;51.60
23591;DHT22;11973;52.098;7.582;2023-05-01T15:23:07;21.60;51.60
23591;DHT22;11973;52.098;7.582;2023-05-01T15:25:35;21.50;51.60
23591;DHT22;11973;52.098;7.582;2023-05-01T15:28:01;21.60;51.60
23591;DHT22;11973;52.098;7.582;2023-05-01T15:30:28;21.50;51.40
23591;DHT22;11973;52.098;7.582;2023-05-01T15:32:54;21.50;51.50
23591;DHT22;11973;52.098;7.582;2023-05-01T15:35:20;21.50;51.50
23591;DHT22;11973;52.098;7.582;2023-05-01T15:37:46;21.40;51.40
23591;DHT22;11973;52.098;7.582;2023-05-01T15:40:12;21.40;51.40
23591;DHT22;11973;52.098;7.582;2023-05-01T15:42:37;21.40;51.40
23591;DHT22;11973;52.098;7.582;2023-05-01T15:45:04;21.30;51.40
23591;DHT22;11973;52.098;7.582;2023-05-01T15:47:30;21.20;51.30
23591;DHT22;11973;52.098;7.582;2023-05-01T15:49:56;21.10;51.30
23591;DHT22;11973;52.098;7.582;2023-05-01T15:52:22;21.00;51.20
23591;DHT22;11973;52.098;7.582;2023-05-01T15:54:47;21.00;51.30
23591;DHT22;11973;52.098;7.582;2023-05-01T15:57:13;20.90;51.30
23591;DHT22;11973;52.098;7.582;2023-05-01T15:59:42;20.90;51.50
23591;DHT22;11973;52.098;7.582;2023-05-01T16:02:08;20.80;51.60
23591;DHT22;11973;52.098;7.582;2023-05-01T16:04:34;20.70;51.70
23591;DHT22;11973;52.098;7.582;2023-05-01T16:07:03;20.70;51.90
23591;DHT22;11973;52.098;7.582;2023-05-01T16:09:31;20.60;52.60
23591;DHT22;11973;52.098;7.582;2023-05-01T16:11:57;20.50;52.80
23591;DHT22;11973;52.098;7.582;2023-05-01T16:14:24;20.50;52.30
23591;DHT22;11973;52.098;7.582;2023-05-01T16:16:51;20.40;52.40
23591;DHT22;11973;52.098;7.582;2023-05-01T16:19:17;20.30;52.50
23591;DHT22;11973;52.098;7.582;2023-05-01T16:21:43;20.30;53.30
23591;DHT22;11973;52.098;7.582;2023-05-01T16:24:09;20.10;52.70
23591;DHT22;11973;52.098;7.582;2023-05-01T16:26:36;20.10;53.00
23591;DHT22;11973;52.098;7.582;2023-05-01T16:29:06;20.00;53.20
23591;DHT22;11973;52.098;7.582;2023-05-01T16:31:37;19.90;53.20
23591;DHT22;11973;52.098;7.582;2023-05-01T16:34:10;19.90;53.40
23591;DHT22;11973;52.098;7.582;2023-05-01T16:36:40;19.90;53.60
23591;DHT22;11973;52.098;7.582;2023-05-01T16:39:17;19.90;53.70
23591;DHT22;11973;52.098;7.582;2023-05-01T16:41:45;19.80;53.50
23591;DHT22;11973;52.098;7.582;2023-05-01T16:44:12;19.80;53.40
23591;DHT22;11973;52.098;7.582;2023-05-01T16:46:39;19.70;53.30
23591;DHT22;11973;52.098;7.582;2023-05-01T16:49:07;19.60;53.20
23591;DHT22;11973;52.098;7.582;2023-05-01T16:51:36;19.60;53.20
23591;DHT22;11973;52.098;7.582;2023-05-01T16:54:02;19.50;53.10
23591;DHT22;11973;52.098;7.582;2023-05-01T16:56:28;19.40;53.10
23591;DHT22;11973;52.098;7.582;2023-05-01T16:58:54;19.40;53.20
23591;DHT22;11973;52.098;7.582;2023-05-01T17:01:20;19.20;53.20
23591;DHT22;11973;52.098;7.582;2023-05-01T17:03:45;19.10;53.40
23591;DHT22;11973;52.098;7.582;2023-05-01T17:06:11;19.00;53.60
23591;DHT22;11973;52.098;7.582;2023-05-01T17:08:37;18.80;53.80
23591;DHT22;11973;52.098;7.582;2023-05-01T17:11:04;18.70;54.00
23591;DHT22;11973;52.098;7.582;2023-05-01T17:13:31;18.50;54.20
23591;DHT22;11973;52.098;7.582;2023-05-01T17:15:56;18.40;55.10
23591;DHT22;11973;52.098;7.582;2023-05-01T17:18:24;18.30;54.70
23591;DHT22;11973;52.098;7.582;2023-05-01T17:20:49;18.10;54.90
23591;DHT22;11973;52.098;7.582;2023-05-01T17:23:15;18.10;55.20
23591;DHT22;11973;52.098;7.582;2023-05-01T17:25:42;18.00;55.40
23591;DHT22;11973;52.098;7.582;2023-05-01T17:28:08;18.10;55.80
23591;DHT22;11973;52.098;7.582;2023-05-01T17:30:34;18.10;56.00
23591;DHT22;11973;52.098;7.582;2023-05-01T17:33:00;18.10;56.20
23591;DHT22;11973;52.098;7.582;2023-05-01T17:35:25;18.10;56.50
23591;DHT22;11973;52.098;7.582;2023-05-01T17:37:51;18.10;56.80
23591;DHT22;11973;52.098;7.582;2023-05-01T17:40:17;18.20;57.10
23591;DHT22;11973;52.098;7.582;2023-05-01T17:42:43;18.10;57.20
23591;DHT22;11973;52.098;7.582;2023-05-01T17:45:10;18.10;57.30
23591;DHT22;11973;52.098;7.582;2023-05-01T17:47:37;18.10;57.40
23591;DHT22;11973;52.098;7.582;2023-05-01T17:50:09;18.00;57.50
23591;DHT22;11973;52.098;7.582;2023-05-01T17:52:36;17.90;57.50
23591;DHT22;11973;52.098;7.582;2023-05-01T17:55:03;17.90;57.70
23591;DHT22;11973;52.098;7.582;2023-05-01T17:57:30;17.70;57.70
23591;DHT22;11973;52.098;7.582;2023-05-01T17:59:57;17.70;58.00
23591;DHT22;11973;52.098;7.582;2023-05-01T18:02:24;17.60;58.10
23591;DHT22;11973;52.098;7.582;2023-05-01T18:04:50;17.50;58.30
23591;DHT22;11973;52.098;7.582;2023-05-01T18:07:16;17.40;58.40
23591;DHT22;11973;52.098;7.582;2023-05-01T18:09:42;17.30;58.50
23591;DHT22;11973;52.098;7.582;2023-05-01T18:12:08;17.20;58.60
23591;DHT22;11973;52.098;7.582;2023-05-01T18:14:35;17.10;58.70
23591;DHT22;11973;52.098;7.582;2023-05-01T18:17:01;17.00;58.90
23591;DHT22;11973;52.098;7.582;2023-05-01T18:19:27;17.00;59.10
23591;DHT22;11973;52.098;7.582;2023-05-01T18:21:53;16.90;59.20
23591;DHT22;11973;52.098;7.582;2023-05-01T18:24:19;16.80;59.30
23591;DHT22;11973;52.098;7.582;2023-05-01T18:26:45;16.80;59.40
23591;DHT22;11973;52.098;7.582;2023-05-01T18:29:11;16.70;59.50
23591;DHT22;11973;52.098;7.582;2023-05-01T18:31:38;16.60;60.40
23591;DHT22;11973;52.098;7.582;2023-05-01T18:34:04;16.50;59.80
23591;DHT22;11973;52.098;7.582;2023-05-01T18:36:31;16.50;60.00
23591;DHT22;11973;52.098;7.582;2023-05-01T18:38:57;16.40;60.10
23591;DHT22;11973;52.098;7.582;2023-05-01T18:41:23;16.30;60.30
23591;DHT22;11973;52.098;7.582;2023-05-01T18:43:52;16.20;60.50
23591;DHT22;11973;52.098;7.582;2023-05-01T18:46:18;16.20;60.80
23591;DHT22;11973;52.098;7.582;2023-05-01T18:48:45;16.10;61.10
23591;DHT22;11973;52.098;7.582;2023-05-01T18:51:10;16.00;61.10
23591;DHT22;11973;52.098;7.582;2023-05-01T18:53:37;15.90;61.30
23591;DHT22;11973;52.098;7.582;2023-05-01T18:56:03;15.90;61.50
23591;DHT22;11973;52.098;7.582;2023-05-01T18:58:30;15.80;61.70
23591;DHT22;11973;52.098;7.582;2023-05-01T19:00:56;15.80;61.90
23591;DHT22;11973;52.098;7.582;2023-05-01T19:03:22;15.70;62.00
23591;DHT22;11973;52.098;7.582;2023-05-01T19:05:49;15.60;62.20
23591;DHT22;11973;52.098;7.582;2023-05-01T19:08:15;15.60;62.50
23591;DHT22;11973;52.098;7.582;2023-05-01T19:10:41;15.50;62.60
23591;DHT22;11973;52.098;7.582;2023-05-01T19:13:07;15.40;62.80
23591;DHT22;11973;52.098;7.582;2023-05-01T19:15:33;15.40;63.10
23591;DHT22;11973;52.098;7.582;2023-05-01T19:17:58;15.40;63.40
23591;DHT22;11973;52.098;7.582;2023-05-01T19:20:24;15.30;63.60
23591;DHT22;11973;52.098;7.582;2023-05-01T19:22:50;15.30;63.80
23591;DHT22;11973;52.098;7.582;2023-05-01T19:25:16;15.20;64.00
23591;DHT22;11973;52.098;7.582;2023-05-01T19:27:42;15.20;64.30
23591;DHT22;11973;52.098;7.582;2023-05-01T19:30:08;15.20;64.50
23591;DHT22;11973;52.098;7.582;2023-05-01T19:32:33;15.10;64.60
23591;DHT22;11973;52.098;7.582;2023-05-01T19:35:00;15.10;64.90
23591;DHT22;11973;52.098;7.582;2023-05-01T19:37:26;15.10;65.10